createdAt,value
2024-04-17T00:00:23.805Z,14.15
2024-04-17T00:01:20.642Z,11.20
2024-04-17T00:02:17.419Z,18.55
2024-04-17T00:03:14.567Z,8.75
2024-04-17T00:04:11.469Z,13.27
2024-04-17T00:05:10.861Z,10.52
2024-04-17T00:06:08.679Z,12.18
2024-04-17T00:07:05.433Z,14.55
2024-04-17T00:08:02.262Z,12.85
2024-04-17T00:08:59.083Z,8.82
2024-04-17T00:09:55.935Z,17.33
2024-04-17T00:10:52.862Z,12.88
2024-04-17T00:11:49.795Z,14.07
2024-04-17T00:12:46.542Z,15.00
2024-04-17T00:13:43.373Z,12.38
2024-04-17T00:14:40.161Z,13.18
2024-04-17T00:15:36.980Z,14.90
2024-04-17T00:16:33.792Z,10.48
2024-04-17T00:17:30.851Z,11.10
2024-04-17T00:18:27.753Z,11.27
2024-04-17T00:19:24.509Z,15.88
2024-04-17T00:20:21.405Z,10.30
2024-04-17T00:21:18.166Z,13.80
2024-04-17T00:22:14.975Z,9.38
2024-04-17T00:23:11.708Z,13.32
2024-04-17T00:24:08.478Z,20.38
2024-04-17T00:25:05.400Z,9.40
2024-04-17T00:26:02.291Z,15.40
2024-04-17T00:26:59.100Z,17.67
2024-04-17T00:27:55.842Z,11.88
2024-04-17T00:28:52.629Z,9.93
2024-04-17T00:29:49.568Z,9.50
2024-04-17T00:30:47.278Z,11.90
2024-04-17T00:31:44.036Z,16.42
2024-04-17T00:32:40.850Z,9.35
2024-04-17T00:33:38.146Z,11.80
2024-04-17T00:34:35.112Z,13.80
2024-04-17T00:35:31.938Z,10.70
2024-04-17T00:36:28.709Z,13.95
2024-04-17T00:37:25.511Z,11.23
2024-04-17T00:38:22.352Z,14.73
2024-04-17T00:39:20.676Z,16.52
2024-04-17T00:40:17.469Z,15.65
2024-04-17T00:41:14.166Z,13.15
2024-04-17T00:42:10.925Z,16.73
2024-04-17T00:43:07.746Z,10.70
2024-04-17T00:44:04.598Z,16.27
2024-04-17T00:45:01.431Z,12.40
2024-04-17T00:45:58.208Z,18.42
2024-04-17T00:46:55.405Z,15.65
2024-04-17T00:47:52.549Z,21.83
2024-04-17T00:48:49.642Z,14.98
2024-04-17T00:49:46.998Z,14.73
2024-04-17T00:50:47.380Z,17.02
2024-04-17T00:51:44.365Z,17.08
2024-04-17T00:52:41.309Z,20.52
2024-04-17T00:53:39.171Z,14.98
2024-04-17T00:54:37.306Z,18.45
2024-04-17T00:55:38.396Z,16.60
2024-04-17T00:56:35.709Z,15.15
2024-04-17T00:57:33.278Z,19.63
2024-04-17T00:58:30.643Z,11.68
2024-04-17T00:59:27.459Z,16.50
2024-04-17T01:00:24.360Z,19.27
2024-04-17T01:01:21.147Z,12.48
2024-04-17T01:02:18.037Z,19.13
2024-04-17T01:03:15.232Z,17.00
2024-04-17T01:04:12.184Z,15.20
2024-04-17T01:05:08.974Z,16.05
2024-04-17T01:06:05.957Z,16.48
2024-04-17T01:07:02.782Z,14.27
2024-04-17T01:08:01.060Z,16.50
2024-04-17T01:08:57.881Z,15.23
2024-04-17T01:09:55.805Z,25.50
2024-04-17T01:11:02.940Z,17.55
2024-04-17T01:11:59.869Z,22.30
2024-04-17T01:12:56.605Z,17.52
2024-04-17T01:13:53.375Z,14.32
2024-04-17T01:14:50.285Z,18.30
2024-04-17T01:15:47.066Z,22.23
2024-04-17T01:16:44.291Z,17.75
2024-04-17T01:17:41.091Z,22.05
2024-04-17T01:18:44.501Z,19.95
2024-04-17T01:19:42.307Z,13.35
2024-04-17T01:20:39.155Z,18.90
2024-04-17T01:21:36.075Z,19.20
2024-04-17T01:22:32.866Z,18.85
2024-04-17T01:23:29.634Z,14.43
2024-04-17T01:24:26.390Z,21.60
2024-04-17T01:25:24.616Z,22.85
2024-04-17T01:26:21.380Z,22.90
2024-04-17T01:27:18.169Z,21.38
2024-04-17T01:28:14.919Z,16.88
2024-04-17T01:29:11.631Z,20.40
2024-04-17T01:30:09.640Z,26.85
2024-04-17T01:31:06.499Z,17.52
2024-04-17T01:32:03.415Z,16.08
2024-04-17T01:33:00.739Z,12.02
2024-04-17T01:33:57.712Z,17.33
2024-04-17T01:34:54.487Z,16.08
2024-04-17T01:35:51.271Z,15.70
2024-04-17T01:36:48.059Z,20.45
2024-04-17T01:37:44.777Z,19.63
2024-04-17T01:38:41.783Z,22.98
2024-04-17T01:39:38.563Z,16.63
2024-04-17T01:40:35.434Z,16.90
2024-04-17T01:41:32.233Z,27.00
2024-04-17T01:42:28.957Z,17.73
2024-04-17T01:43:26.887Z,17.55
2024-04-17T01:44:29.864Z,22.30
2024-04-17T01:45:27.349Z,20.90
2024-04-17T01:46:24.106Z,20.65
2024-04-17T01:47:20.909Z,19.77
2024-04-17T01:48:17.719Z,22.17
2024-04-17T01:49:14.435Z,17.00
2024-04-17T01:50:11.234Z,15.38
2024-04-17T01:51:07.937Z,21.45
2024-04-17T01:52:05.038Z,17.00
2024-04-17T01:53:01.768Z,16.92
2024-04-17T01:53:58.589Z,18.75
2024-04-17T01:54:55.382Z,15.45
2024-04-17T01:55:52.378Z,14.82
2024-04-17T01:56:52.741Z,15.90
2024-04-17T01:57:49.484Z,15.38
2024-04-17T01:58:46.250Z,16.67
2024-04-17T01:59:43.015Z,19.08
2024-04-17T02:00:40.232Z,17.35
2024-04-17T02:01:37.283Z,15.50
2024-04-17T02:02:34.017Z,19.75
2024-04-17T02:03:30.876Z,19.45
2024-04-17T02:04:27.884Z,17.55
2024-04-17T02:05:24.628Z,20.33
2024-04-17T02:06:21.372Z,22.02
2024-04-17T02:07:18.114Z,21.17
2024-04-17T02:08:14.993Z,17.60
2024-04-17T02:09:11.691Z,20.77
2024-04-17T02:10:08.530Z,22.02
2024-04-17T02:11:06.652Z,16.92
2024-04-17T02:12:03.796Z,20.27
2024-04-17T02:13:00.539Z,16.42
2024-04-17T02:13:57.356Z,21.92
2024-04-17T02:14:54.109Z,15.80
2024-04-17T02:15:50.824Z,20.42
2024-04-17T02:16:47.646Z,19.02
2024-04-17T02:17:44.562Z,18.48
2024-04-17T02:18:41.418Z,21.85
2024-04-17T02:19:38.190Z,16.90
2024-04-17T02:20:34.951Z,21.10
2024-04-17T02:21:31.807Z,20.33
2024-04-17T02:22:28.578Z,16.10
2024-04-17T02:23:29.660Z,16.52
2024-04-17T02:24:26.463Z,19.38
2024-04-17T02:25:23.385Z,20.80
2024-04-17T02:26:20.246Z,17.70
2024-04-17T02:27:17.061Z,17.50
2024-04-17T02:28:13.844Z,14.95
2024-04-17T02:29:10.624Z,21.48
2024-04-17T02:30:07.981Z,15.43
2024-04-17T02:31:04.892Z,13.80
2024-04-17T02:32:01.691Z,25.05
2024-04-17T02:32:58.626Z,18.73
2024-04-17T02:33:55.719Z,18.27
2024-04-17T02:34:52.558Z,21.67
2024-04-17T02:35:49.342Z,16.58
2024-04-17T02:36:46.125Z,18.15
2024-04-17T02:37:42.916Z,17.10
2024-04-17T02:38:39.649Z,20.35
2024-04-17T02:39:36.789Z,23.25
2024-04-17T02:40:33.532Z,18.60
2024-04-17T02:41:30.334Z,17.02
2024-04-17T02:42:27.073Z,14.68
2024-04-17T02:43:23.898Z,18.77
2024-04-17T02:44:20.630Z,15.82
2024-04-17T02:45:17.368Z,20.20
2024-04-17T02:46:14.209Z,20.10
2024-04-17T02:47:11.063Z,14.95
2024-04-17T02:48:08.287Z,17.23
2024-04-17T02:49:05.053Z,14.90
2024-04-17T02:50:01.878Z,21.17
2024-04-17T02:50:58.721Z,20.08
2024-04-17T02:51:55.449Z,18.60
2024-04-17T02:52:52.221Z,18.63
2024-04-17T02:53:49.106Z,14.80
2024-04-17T02:54:45.829Z,15.27
2024-04-17T02:55:42.602Z,18.33
2024-04-17T02:56:39.861Z,21.27
2024-04-17T02:57:36.614Z,19.40
2024-04-17T02:58:33.415Z,23.45
2024-04-17T02:59:30.264Z,26.65
2024-04-17T03:00:27.653Z,18.52
2024-04-17T03:01:25.252Z,19.02
2024-04-17T03:02:22.148Z,20.60
2024-04-17T03:03:19.073Z,17.20
2024-04-17T03:04:15.886Z,19.83
2024-04-17T03:05:12.773Z,17.00
2024-04-17T03:06:09.831Z,17.45
2024-04-17T03:07:06.591Z,26.35
2024-04-17T03:08:06.339Z,20.95
2024-04-17T03:09:03.098Z,25.80
2024-04-17T03:09:59.834Z,19.90
2024-04-17T03:11:00.507Z,21.77
2024-04-17T03:11:57.278Z,22.73
2024-04-17T03:12:54.002Z,19.05
2024-04-17T03:13:50.865Z,22.65
2024-04-17T03:14:47.628Z,21.98
2024-04-17T03:15:47.176Z,21.55
2024-04-17T03:16:44.138Z,18.20
2024-04-17T03:17:40.977Z,18.50
2024-04-17T03:18:37.869Z,19.85
2024-04-17T03:19:34.784Z,19.63
2024-04-17T03:20:32.898Z,18.10
2024-04-17T03:21:30.601Z,19.20
2024-04-17T03:22:27.488Z,20.33
2024-04-17T03:23:24.211Z,17.17
2024-04-17T03:24:20.939Z,22.13
2024-04-17T03:25:17.704Z,22.30
2024-04-17T03:26:14.457Z,24.15
2024-04-17T03:27:11.183Z,23.58
2024-04-17T03:28:07.925Z,22.90
2024-04-17T03:29:04.676Z,22.05
2024-04-17T03:30:02.500Z,20.08
2024-04-17T03:31:01.367Z,18.63
2024-04-17T03:32:04.246Z,21.95
2024-04-17T03:33:01.096Z,24.15
2024-04-17T03:33:57.926Z,16.55
2024-04-17T03:34:54.756Z,24.13
2024-04-17T03:35:58.946Z,17.05
2024-04-17T03:36:55.711Z,17.90
2024-04-17T03:37:52.474Z,18.02
2024-04-17T03:38:49.248Z,22.80
2024-04-17T03:39:46.036Z,17.50
2024-04-17T03:40:42.818Z,20.67
2024-04-17T03:41:39.652Z,25.77
2024-04-17T03:42:36.413Z,18.98
2024-04-17T03:43:33.184Z,23.88
2024-04-17T03:44:29.942Z,17.35
2024-04-17T03:45:26.785Z,25.38
2024-04-17T03:46:23.537Z,15.35
2024-04-17T03:47:20.304Z,24.83
2024-04-17T03:48:17.116Z,18.20
2024-04-17T03:49:13.902Z,25.58
2024-04-17T03:50:10.664Z,25.95
2024-04-17T03:51:07.413Z,20.23
2024-04-17T03:52:04.437Z,22.60
2024-04-17T03:53:01.266Z,26.80
2024-04-17T03:53:58.209Z,18.45
2024-04-17T03:54:54.979Z,23.52
2024-04-17T03:55:51.726Z,21.42
2024-04-17T03:56:48.480Z,18.67
2024-04-17T03:57:45.199Z,18.65
2024-04-17T03:58:41.915Z,18.80
2024-04-17T03:59:38.669Z,23.17
2024-04-17T04:00:35.601Z,18.25
2024-04-17T04:01:36.345Z,21.77
2024-04-17T04:02:33.203Z,21.25
2024-04-17T04:03:30.035Z,20.23
2024-04-17T04:04:26.934Z,18.13
2024-04-17T04:05:23.767Z,27.95
2024-04-17T04:06:20.545Z,22.25
2024-04-17T04:07:17.531Z,20.90
2024-04-17T04:08:14.237Z,21.40
2024-04-17T04:09:11.003Z,17.58
2024-04-17T04:10:07.877Z,22.83
2024-04-17T04:11:04.929Z,19.85
2024-04-17T04:12:01.804Z,21.95
2024-04-17T04:12:59.418Z,19.00
2024-04-17T04:13:56.197Z,25.85
2024-04-17T04:14:52.953Z,27.67
2024-04-17T04:15:55.759Z,22.27
2024-04-17T04:16:52.652Z,20.48
2024-04-17T04:17:49.829Z,17.33
2024-04-17T04:18:46.662Z,20.35
2024-04-17T04:19:44.370Z,25.65
2024-04-17T04:20:41.114Z,20.73
2024-04-17T04:21:37.964Z,23.58
2024-04-17T04:22:34.756Z,20.83
2024-04-17T04:23:31.576Z,27.45
2024-04-17T04:24:28.328Z,29.08
2024-04-17T04:25:25.076Z,21.17
2024-04-17T04:26:21.902Z,21.63
2024-04-17T04:27:18.608Z,23.17
2024-04-17T04:28:15.645Z,30.00
2024-04-17T04:29:12.428Z,28.85
2024-04-17T04:30:09.502Z,27.23
2024-04-17T04:31:06.255Z,21.50
2024-04-17T04:32:03.163Z,21.58
2024-04-17T04:33:00.732Z,26.45
2024-04-17T04:33:57.582Z,19.02
2024-04-17T04:34:54.390Z,20.30
2024-04-17T04:35:51.234Z,19.75
2024-04-17T04:36:48.084Z,22.65
2024-04-17T04:37:44.934Z,22.10
2024-04-17T04:38:41.942Z,18.27
2024-04-17T04:39:38.707Z,19.58
2024-04-17T04:40:35.496Z,23.58
2024-04-17T04:41:32.307Z,39.55
2024-04-17T04:42:29.073Z,22.38
2024-04-17T04:43:25.890Z,23.08
2024-04-17T04:44:22.690Z,26.58
2024-04-17T04:45:19.426Z,25.90
2024-04-17T04:46:16.274Z,23.08
2024-04-17T04:47:14.755Z,25.73
2024-04-17T04:48:11.983Z,22.45
2024-04-17T04:49:08.794Z,22.70
2024-04-17T04:50:05.756Z,20.73
2024-04-17T04:51:02.669Z,26.30
2024-04-17T04:51:59.497Z,21.90
2024-04-17T04:52:56.232Z,24.10
2024-04-17T04:53:52.945Z,28.85
2024-04-17T04:54:49.724Z,23.48
2024-04-17T04:55:59.952Z,25.08
2024-04-17T04:56:56.703Z,28.70
2024-04-17T04:57:53.487Z,20.23
2024-04-17T04:58:50.229Z,28.30
2024-04-17T04:59:47.357Z,25.50
2024-04-17T05:00:44.095Z,23.42
2024-04-17T05:01:40.886Z,22.10
2024-04-17T05:02:37.756Z,18.90
2024-04-17T05:03:34.517Z,21.40
2024-04-17T05:04:31.451Z,18.55
2024-04-17T05:05:28.219Z,20.75
2024-04-17T05:06:25.002Z,25.52
2024-04-17T05:07:21.964Z,25.17
2024-04-17T05:08:19.964Z,20.55
2024-04-17T05:09:16.744Z,23.33
2024-04-17T05:10:13.486Z,18.33
2024-04-17T05:11:13.203Z,24.20
2024-04-17T05:12:10.012Z,28.00
2024-04-17T05:13:06.934Z,19.52
2024-04-17T05:14:03.768Z,21.75
2024-04-17T05:15:00.554Z,20.02
2024-04-17T05:15:57.283Z,25.38
2024-04-17T05:16:54.160Z,24.65
2024-04-17T05:17:51.024Z,24.05
2024-04-17T05:18:47.891Z,22.20
2024-04-17T05:19:44.700Z,24.35
2024-04-17T05:20:41.474Z,21.33
2024-04-17T05:21:38.209Z,19.48
2024-04-17T05:22:35.294Z,20.45
2024-04-17T05:23:32.048Z,18.27
2024-04-17T05:24:29.761Z,16.88
2024-04-17T05:25:27.922Z,21.65
2024-04-17T05:26:24.883Z,19.73
2024-04-17T05:27:21.629Z,20.20
2024-04-17T05:28:18.364Z,15.60
2024-04-17T05:29:15.122Z,19.98
2024-04-17T05:30:12.384Z,21.33
2024-04-17T05:31:09.192Z,22.42
2024-04-17T05:32:06.303Z,16.40
2024-04-17T05:33:03.477Z,18.35
2024-04-17T05:34:00.264Z,22.45
2024-04-17T05:34:57.163Z,13.95
2024-04-17T05:35:53.947Z,21.45
2024-04-17T05:36:50.650Z,26.73
2024-04-17T05:37:47.353Z,18.92
2024-04-17T05:38:44.155Z,17.85
2024-04-17T05:39:41.028Z,15.05
2024-04-17T05:40:38.145Z,19.45
2024-04-17T05:41:34.889Z,17.38
2024-04-17T05:42:31.718Z,20.73
2024-04-17T05:43:28.488Z,15.02
2024-04-17T05:44:25.279Z,18.50
2024-04-17T05:45:22.187Z,17.63
2024-04-17T05:46:18.928Z,19.17
2024-04-17T05:47:15.744Z,15.75
2024-04-17T05:48:12.744Z,23.90
2024-04-17T05:49:09.581Z,27.45
2024-04-17T05:50:09.060Z,19.50
2024-04-17T05:51:06.274Z,25.17
2024-04-17T05:52:04.676Z,22.48
2024-04-17T05:53:01.458Z,21.50
2024-04-17T05:53:58.211Z,13.63
2024-04-17T05:54:55.054Z,20.42
2024-04-17T05:55:51.888Z,24.85
2024-04-17T05:56:48.766Z,18.88
2024-04-17T05:57:45.571Z,16.55
2024-04-17T05:58:42.392Z,19.13
2024-04-17T05:59:39.290Z,20.95
2024-04-17T06:00:37.636Z,22.23
2024-04-17T06:01:34.485Z,18.52
2024-04-17T06:02:31.255Z,25.80
2024-04-17T06:03:27.981Z,19.38
2024-04-17T06:04:25.357Z,16.13
2024-04-17T06:05:22.134Z,21.60
2024-04-17T06:06:18.920Z,17.20
2024-04-17T06:07:15.697Z,13.68
2024-04-17T06:08:12.551Z,16.90
2024-04-17T06:09:09.407Z,16.33
2024-04-17T06:10:06.906Z,17.85
2024-04-17T06:11:06.557Z,13.48
2024-04-17T06:12:06.579Z,15.68
2024-04-17T06:13:03.302Z,14.93
2024-04-17T06:14:00.376Z,18.20
2024-04-17T06:14:57.213Z,16.42
2024-04-17T06:15:54.349Z,13.38
2024-04-17T06:16:51.126Z,16.75
2024-04-17T06:17:47.998Z,17.30
2024-04-17T06:18:44.996Z,16.17
2024-04-17T06:19:41.782Z,14.55
2024-04-17T06:20:38.538Z,12.50
2024-04-17T06:21:35.266Z,11.73
2024-04-17T06:22:32.066Z,14.93
2024-04-17T06:23:28.943Z,12.55
2024-04-17T06:24:25.674Z,13.40
2024-04-17T06:25:22.419Z,12.43
2024-04-17T06:26:19.262Z,15.00
2024-04-17T06:27:16.164Z,12.52
2024-04-17T06:28:12.942Z,17.83
2024-04-17T06:29:09.753Z,17.10
2024-04-17T06:30:07.127Z,11.35
2024-04-17T06:31:06.894Z,17.50
2024-04-17T06:32:03.861Z,17.52
2024-04-17T06:33:00.838Z,14.82
2024-04-17T06:33:57.732Z,13.15
2024-04-17T06:34:54.567Z,15.90
2024-04-17T06:35:54.264Z,14.75
2024-04-17T06:36:52.350Z,11.57
2024-04-17T06:37:49.161Z,13.70
2024-04-17T06:38:46.278Z,13.82
2024-04-17T06:39:43.089Z,13.93
2024-04-17T06:40:39.880Z,18.80
2024-04-17T06:41:43.441Z,15.63
2024-04-17T06:42:48.687Z,14.75
2024-04-17T06:43:45.479Z,13.20
2024-04-17T06:44:42.271Z,18.77
2024-04-17T06:45:39.034Z,14.48
2024-04-17T06:46:35.845Z,17.63
2024-04-17T06:47:32.617Z,14.30
2024-04-17T06:48:29.469Z,15.80
2024-04-17T06:49:26.873Z,15.15
2024-04-17T06:50:23.800Z,12.48
2024-04-17T06:51:20.522Z,18.55
2024-04-17T06:52:17.382Z,12.70
2024-04-17T06:53:14.106Z,20.83
2024-04-17T06:54:10.815Z,13.95
2024-04-17T06:55:07.663Z,16.20
2024-04-17T06:56:04.641Z,13.45
2024-04-17T06:57:01.474Z,18.92
2024-04-17T06:57:58.195Z,20.20
2024-04-17T06:58:55.304Z,20.88
2024-04-17T06:59:52.085Z,16.10
2024-04-17T07:00:48.921Z,18.05
2024-04-17T07:01:45.934Z,15.57
2024-04-17T07:02:49.135Z,19.02
2024-04-17T07:03:49.331Z,9.07
2024-04-17T07:04:46.246Z,13.75
2024-04-17T07:05:43.026Z,12.98
2024-04-17T07:06:41.865Z,12.80
2024-04-17T07:07:38.708Z,12.25
2024-04-17T07:08:35.579Z,15.75
2024-04-17T07:09:32.321Z,14.02
2024-04-17T07:10:29.136Z,13.40
2024-04-17T07:11:25.914Z,16.30
2024-04-17T07:12:22.665Z,11.88
2024-04-17T07:13:19.505Z,14.52
2024-04-17T07:14:16.292Z,11.85
2024-04-17T07:15:13.043Z,11.18
2024-04-17T07:16:10.533Z,13.82
2024-04-17T07:17:07.329Z,16.95
2024-04-17T07:18:04.250Z,14.10
2024-04-17T07:19:01.265Z,12.52
2024-04-17T07:19:58.163Z,13.02
2024-04-17T07:20:55.152Z,13.88
2024-04-17T07:21:52.610Z,14.30
2024-04-17T07:22:49.454Z,12.90
2024-04-17T07:23:46.162Z,15.00
2024-04-17T07:24:43.044Z,8.60
2024-04-17T07:25:39.815Z,9.68
2024-04-17T07:26:36.646Z,8.85
2024-04-17T07:27:33.436Z,11.68
2024-04-17T07:28:30.193Z,5.47
2024-04-17T07:29:27.062Z,9.38
2024-04-17T07:30:23.843Z,4.63
2024-04-17T07:31:20.636Z,9.10
2024-04-17T07:32:17.464Z,9.02
2024-04-17T07:33:14.466Z,4.45
2024-04-17T07:34:11.352Z,6.55
2024-04-17T07:35:08.152Z,6.22
2024-04-17T07:36:05.201Z,7.10
2024-04-17T07:37:01.945Z,12.95
2024-04-17T07:37:58.971Z,5.43
2024-04-17T07:38:55.728Z,3.83
2024-04-17T07:39:52.502Z,6.88
2024-04-17T07:40:57.418Z,5.93
2024-04-17T07:41:54.286Z,18.42
2024-04-17T07:42:51.069Z,11.43
2024-04-17T07:43:47.850Z,20.40
2024-04-17T07:44:48.323Z,10.68
2024-04-17T07:45:52.146Z,7.57
2024-04-17T07:46:49.493Z,15.30
2024-04-17T07:47:46.382Z,8.25
2024-04-17T07:48:43.226Z,4.72
2024-04-17T07:49:40.070Z,9.30
2024-04-17T07:50:36.829Z,6.80
2024-04-17T07:51:33.621Z,6.13
2024-04-17T07:52:30.526Z,9.73
2024-04-17T07:53:27.279Z,10.25
2024-04-17T07:54:24.147Z,4.68
2024-04-17T07:55:20.890Z,9.70
2024-04-17T07:56:17.611Z,12.43
2024-04-17T07:57:14.371Z,17.25
2024-04-17T07:58:11.130Z,9.82
2024-04-17T07:59:08.457Z,7.03
2024-04-17T08:00:05.648Z,11.23
2024-04-17T08:01:02.527Z,7.35
2024-04-17T08:01:59.319Z,9.73
2024-04-17T08:02:56.144Z,15.15
2024-04-17T08:03:54.553Z,6.07
2024-04-17T08:04:51.793Z,6.43
2024-04-17T08:05:48.684Z,9.85
2024-04-17T08:06:45.434Z,6.97
2024-04-17T08:07:43.371Z,11.55
2024-04-17T08:08:42.236Z,8.73
2024-04-17T08:09:38.980Z,8.23
2024-04-17T08:10:36.319Z,6.65
2024-04-17T08:11:38.321Z,7.35
2024-04-17T08:12:37.683Z,9.98
2024-04-17T08:13:34.462Z,6.40
2024-04-17T08:14:31.265Z,14.10
2024-04-17T08:15:28.032Z,8.55
2024-04-17T08:16:24.827Z,6.50
2024-04-17T08:17:21.684Z,7.55
2024-04-17T08:18:18.597Z,6.18
2024-04-17T08:19:16.025Z,5.80
2024-04-17T08:20:12.864Z,11.40
2024-04-17T08:21:09.704Z,6.45
2024-04-17T08:22:06.513Z,10.60
2024-04-17T08:23:03.653Z,9.43
2024-04-17T08:24:00.461Z,9.15
2024-04-17T08:24:57.195Z,3.75
2024-04-17T08:25:54.059Z,7.65
2024-04-17T08:26:50.841Z,6.47
2024-04-17T08:27:47.556Z,6.72
2024-04-17T08:28:44.314Z,6.43
2024-04-17T08:29:41.118Z,7.30
2024-04-17T08:30:37.803Z,5.68
2024-04-17T08:31:34.665Z,6.43
2024-04-17T08:32:31.809Z,5.35
2024-04-17T08:33:29.115Z,3.75
2024-04-17T08:34:26.092Z,7.35
2024-04-17T08:35:22.985Z,6.50
2024-04-17T08:36:19.800Z,6.57
2024-04-17T08:37:16.632Z,5.50
2024-04-17T08:38:13.593Z,8.20
2024-04-17T08:39:10.472Z,4.07
2024-04-17T08:40:08.976Z,5.28
2024-04-17T08:41:05.826Z,6.57
2024-04-17T08:42:07.203Z,6.25
2024-04-17T08:43:08.110Z,6.95
2024-04-17T08:44:13.865Z,3.42
2024-04-17T08:45:15.444Z,7.68
2024-04-17T08:46:17.511Z,11.15
2024-04-17T08:47:16.197Z,3.83
2024-04-17T08:48:13.237Z,3.92
2024-04-17T08:49:12.564Z,8.25
2024-04-17T08:50:10.872Z,8.50
2024-04-17T08:51:12.143Z,8.20
2024-04-17T08:52:10.695Z,8.13
2024-04-17T08:53:08.092Z,6.03
2024-04-17T08:54:06.314Z,5.53
2024-04-17T08:55:07.165Z,6.63
2024-04-17T08:56:04.552Z,6.45
2024-04-17T08:57:01.405Z,11.98
2024-04-17T08:57:58.770Z,7.00
2024-04-17T08:58:55.996Z,5.53
2024-04-17T08:59:52.752Z,3.58
2024-04-17T09:00:52.938Z,5.20
2024-04-17T09:01:50.937Z,5.45
2024-04-17T09:02:49.280Z,6.03
2024-04-17T09:03:47.364Z,5.78
2024-04-17T09:04:48.391Z,4.88
2024-04-17T09:05:46.134Z,7.65
2024-04-17T09:06:43.838Z,6.55
2024-04-17T09:07:41.804Z,9.65
2024-04-17T09:08:39.280Z,12.70
2024-04-17T09:09:38.723Z,4.35
2024-04-17T09:10:35.608Z,3.58
2024-04-17T09:11:33.628Z,3.05
2024-04-17T09:12:32.500Z,3.22
2024-04-17T09:13:29.331Z,4.95
2024-04-17T09:15:23.525Z,2.60
2024-04-17T09:16:20.279Z,2.20
2024-04-17T09:17:17.059Z,2.53
2024-04-17T09:18:14.489Z,8.85
2024-04-17T09:19:11.377Z,5.20
2024-04-17T09:20:08.713Z,2.80
2024-04-17T09:21:06.478Z,4.60
2024-04-17T09:22:03.363Z,4.20
2024-04-17T09:23:00.301Z,5.28
2024-04-17T09:23:57.117Z,3.53
2024-04-17T09:24:53.840Z,4.50
2024-04-17T09:25:50.584Z,4.22
2024-04-17T09:26:47.385Z,1.88
2024-04-17T09:27:46.572Z,3.33
2024-04-17T09:28:43.616Z,3.03
2024-04-17T09:29:40.492Z,5.97
2024-04-17T09:30:38.008Z,2.28
2024-04-17T09:31:34.834Z,4.10
2024-04-17T09:32:31.947Z,4.38
2024-04-17T09:33:29.276Z,6.38
2024-04-17T09:34:26.167Z,4.18
2024-04-17T09:35:24.005Z,3.58
2024-04-17T09:36:22.560Z,2.50
2024-04-17T09:37:19.533Z,2.72
2024-04-17T09:38:16.913Z,2.33
2024-04-17T09:39:13.751Z,3.97
2024-04-17T09:40:11.932Z,6.10
2024-04-17T09:41:12.757Z,4.82
2024-04-17T09:42:13.641Z,3.38
2024-04-17T09:43:19.565Z,3.38
2024-04-17T09:44:22.150Z,1.73
2024-04-17T09:45:23.558Z,5.10
2024-04-17T09:46:22.974Z,3.30
2024-04-17T09:47:20.791Z,5.03
2024-04-17T09:48:17.584Z,3.72
2024-04-17T09:49:23.979Z,3.47
2024-04-17T09:50:26.519Z,5.38
2024-04-17T09:52:23.915Z,4.18
2024-04-17T09:53:31.516Z,3.33
2024-04-17T09:54:33.968Z,3.35
2024-04-17T09:55:32.439Z,5.40
2024-04-17T09:56:29.741Z,1.77
2024-04-17T09:57:26.954Z,2.80
2024-04-17T09:58:24.581Z,6.45
2024-04-17T09:59:22.888Z,5.45
2024-04-17T10:00:20.063Z,6.85
2024-04-17T10:01:18.185Z,7.38
2024-04-17T10:02:17.328Z,3.97
2024-04-17T10:03:16.744Z,2.53
2024-04-17T10:04:16.789Z,4.13
2024-04-17T10:05:15.444Z,5.28
2024-04-17T10:06:12.590Z,2.92
2024-04-17T10:07:12.694Z,2.60
2024-04-17T10:08:09.840Z,4.00
2024-04-17T10:09:07.641Z,6.00
2024-04-17T10:10:05.659Z,3.88
2024-04-17T10:11:02.923Z,2.78
2024-04-17T10:12:01.603Z,3.45
2024-04-17T10:13:01.193Z,6.32
2024-04-17T10:13:59.447Z,3.22
2024-04-17T10:14:58.336Z,2.80
2024-04-17T10:15:55.935Z,3.20
2024-04-17T10:16:53.999Z,5.38
2024-04-17T10:17:51.169Z,4.85
2024-04-17T10:18:48.208Z,4.38
2024-04-17T10:19:54.516Z,2.78
2024-04-17T10:20:55.028Z,5.15
2024-04-17T10:21:55.747Z,6.15
2024-04-17T10:22:52.549Z,4.47
2024-04-17T10:24:02.180Z,2.72
2024-04-17T10:25:06.651Z,2.25
2024-04-17T10:26:03.476Z,5.35
2024-04-17T10:27:05.680Z,4.82
2024-04-17T10:28:04.384Z,3.22
2024-04-17T10:29:01.206Z,6.93
2024-04-17T10:30:14.430Z,3.78
2024-04-17T10:32:15.541Z,3.97
2024-04-17T10:33:24.957Z,3.85
2024-04-17T10:34:21.808Z,4.55
2024-04-17T10:35:19.433Z,5.25
2024-04-17T10:36:16.328Z,9.10
2024-04-17T10:37:13.987Z,7.50
2024-04-17T10:38:23.378Z,3.90
2024-04-17T10:39:28.417Z,4.93
2024-04-17T10:40:26.156Z,4.45
2024-04-17T10:41:29.643Z,12.38
2024-04-17T10:42:26.902Z,5.03
2024-04-17T10:43:24.901Z,4.20
2024-04-17T10:44:24.613Z,7.47
2024-04-17T10:45:21.871Z,7.78
2024-04-17T10:46:23.094Z,5.57
2024-04-17T10:47:30.808Z,5.63
2024-04-17T10:48:27.755Z,5.50
2024-04-17T10:49:24.528Z,5.63
2024-04-17T10:50:21.338Z,4.60
2024-04-17T10:51:20.089Z,3.00
2024-04-17T10:52:17.156Z,5.60
2024-04-17T10:53:14.969Z,4.63
2024-04-17T10:54:13.159Z,3.65
2024-04-17T10:55:11.669Z,6.38
2024-04-17T10:56:11.818Z,4.50
2024-04-17T10:57:10.172Z,4.25
2024-04-17T10:58:08.211Z,4.38
2024-04-17T10:59:05.564Z,4.78
2024-04-17T11:00:02.581Z,5.03
2024-04-17T11:01:05.059Z,7.18
2024-04-17T11:02:59.763Z,7.35
2024-04-17T11:03:56.551Z,10.57
2024-04-17T11:04:53.521Z,15.02
2024-04-17T11:05:50.380Z,7.78
2024-04-17T11:06:47.341Z,12.38
2024-04-17T11:07:44.137Z,11.18
2024-04-17T11:08:48.156Z,15.13
2024-04-17T11:09:51.935Z,16.25
2024-04-17T11:10:49.766Z,14.93
2024-04-17T11:11:51.509Z,18.40
2024-04-17T11:12:48.412Z,15.63
2024-04-17T11:13:45.429Z,12.10
2024-04-17T11:14:42.724Z,18.00
2024-04-17T11:15:39.408Z,14.38
2024-04-17T11:16:37.634Z,13.60
2024-04-17T11:17:34.606Z,13.18
2024-04-17T11:18:33.224Z,11.93
2024-04-17T11:19:30.116Z,7.47
2024-04-17T11:20:27.055Z,53.78
2024-04-17T11:21:25.245Z,77.53
2024-04-17T11:22:22.147Z,15.48
2024-04-17T11:23:18.974Z,13.60
2024-04-17T11:24:19.604Z,13.20
2024-04-17T11:25:16.563Z,11.43
2024-04-17T11:26:14.332Z,12.77
2024-04-17T11:27:11.371Z,14.43
2024-04-17T11:28:13.414Z,12.65
2024-04-17T11:29:29.931Z,13.27
2024-04-17T11:30:33.790Z,13.52
2024-04-17T11:31:30.624Z,14.40
2024-04-17T11:32:29.310Z,7.68
2024-04-17T11:33:29.469Z,9.20
2024-04-17T11:34:26.645Z,11.60
2024-04-17T11:35:23.404Z,12.88
2024-04-17T11:36:20.167Z,14.48
2024-04-17T11:37:17.180Z,10.15
2024-04-17T11:38:14.889Z,8.02
2024-04-17T11:39:11.807Z,12.63
2024-04-17T11:40:09.525Z,11.23
2024-04-17T11:41:06.458Z,12.57
2024-04-17T11:42:04.232Z,10.45
2024-04-17T11:43:00.956Z,9.88
2024-04-17T11:43:57.719Z,9.10
2024-04-17T11:44:56.913Z,12.05
2024-04-17T11:45:54.569Z,13.57
2024-04-17T11:46:51.894Z,14.05
2024-04-17T11:47:48.790Z,8.43
2024-04-17T11:48:45.898Z,10.57
2024-04-17T11:49:43.864Z,9.48
2024-04-17T11:50:40.935Z,15.00
2024-04-17T11:51:37.921Z,10.10
2024-04-17T11:52:34.731Z,9.13
2024-04-17T11:53:31.598Z,7.68
2024-04-17T11:54:28.686Z,8.18
2024-04-17T11:55:25.599Z,5.45
2024-04-17T11:56:22.463Z,8.48
2024-04-17T11:57:19.539Z,8.07
2024-04-17T11:58:16.317Z,15.05
2024-04-17T11:59:13.089Z,7.35
2024-04-17T12:00:10.425Z,5.53
2024-04-17T12:01:08.201Z,9.60
2024-04-17T12:02:05.273Z,13.23
2024-04-17T12:03:02.135Z,13.00
2024-04-17T12:03:59.099Z,10.13
2024-04-17T12:04:55.991Z,9.98
2024-04-17T12:05:53.989Z,9.13
2024-04-17T12:06:53.381Z,8.38
2024-04-17T12:07:50.230Z,15.57
2024-04-17T12:08:47.434Z,11.15
2024-04-17T12:09:50.515Z,9.95
2024-04-17T12:10:49.384Z,12.85
2024-04-17T12:11:46.354Z,10.73
2024-04-17T12:12:43.062Z,10.00
2024-04-17T12:13:39.937Z,7.10
2024-04-17T12:14:36.762Z,10.65
2024-04-17T12:15:33.560Z,10.98
2024-04-17T12:16:30.546Z,7.55
2024-04-17T12:17:27.447Z,8.90
2024-04-17T12:18:24.229Z,10.30
2024-04-17T12:19:20.974Z,6.65
2024-04-17T12:20:17.840Z,4.13
2024-04-17T12:21:14.616Z,6.90
2024-04-17T12:22:11.379Z,8.32
2024-04-17T12:23:08.228Z,9.30
2024-04-17T12:24:09.769Z,7.13
2024-04-17T12:25:25.433Z,6.50
2024-04-17T12:26:40.920Z,8.10
2024-04-17T12:27:37.658Z,7.85
2024-04-17T12:28:34.920Z,15.07
2024-04-17T12:29:31.803Z,9.57
2024-04-17T12:30:28.629Z,6.63
2024-04-17T12:31:25.490Z,5.72
2024-04-17T12:32:22.493Z,5.72
2024-04-17T12:33:19.325Z,6.47
2024-04-17T12:34:16.218Z,14.60